PWSweather.com
Personal Weather Stations
Station Observations
KMAMEDFI2
Medfield, MA 02052

Medfield, MA 02052

Lat: 42.1900822, Lon: -71.3296889

Elevation: 138

Station Type: Rainwise WS MK-III

http://www.medfieldweather.com

Latest ConditionsUpdated 11:10:00 PM EDT Monday, Aug 3, 2015
Currently Today's Max Today's Min Today's Average
Temperature 74.1°F23.4°C 90.5°F32.5°C 63.5°F17.5°C 77.2°F25.1°C
Dew Point 69.3°F20.7°C 70.4°F21.3°C 58.2°F14.6°C 63.8°F17.7°C
Winds 1.5 mph WSW2.4 kmh WSW 4.4 mph S7.1 kmh S - 1.7 mph 2.7 kmh
Wind Gusts 4.6 mph7.4 kmh 13.7 mph22.0 kmh - -
Humidity 85% 99% 35% 69%
Pressure 29.99 in1015.6 mb 30.05 in1017.6 mb 29.96 in1014.6 mb -
Hour Temp Dew Point Humidity Winds Wind Gusts Pressure Precip Precip Rate Daily Precip Total
11:10 PM 74.1°F23.4°C 69.3°F20.7°C 85% 1.5 mph WSW2.4 kmh WSW 4.6 mph7.4 kmh 29.99 in1015.6 mb - 0.00 in0.0 mm 0.00 in0.0 mm
11:00 PM 74.2°F23.4°C 69.4°F20.8°C 85% 1.2 mph SE1.9 kmh SE 2.3 mph3.7 kmh 29.99 in1015.6 mb - 0.00 in0.0 mm 0.00 in0.0 mm
10:50 PM 74.4°F23.6°C 69.2°F20.7°C 84% 1.6 mph S2.6 kmh S 3.4 mph5.5 kmh 29.99 in1015.6 mb - 0.00 in0.0 mm 0.00 in0.0 mm
10:40 PM 74.3°F23.5°C 69.2°F20.7°C 84% 1.8 mph S2.9 kmh S 4.6 mph7.4 kmh 29.99 in1015.6 mb - 0.00 in0.0 mm 0.00 in0.0 mm
10:30 PM 74.4°F23.6°C 68.9°F20.5°C 83% 1.7 mph ESE2.7 kmh ESE 4.6 mph7.4 kmh 29.99 in1015.6 mb - 0.00 in0.0 mm 0.00 in0.0 mm
10:20 PM 74.5°F23.6°C 69.0°F20.6°C 83% 1.2 mph SW1.9 kmh SW 2.3 mph3.7 kmh 29.99 in1015.6 mb - 0.00 in0.0 mm 0.00 in0.0 mm
10:10 PM 74.6°F23.7°C 68.7°F20.4°C 82% 1.9 mph S3.1 kmh S 6.8 mph10.9 kmh 29.99 in1015.6 mb - 0.00 in0.0 mm 0.00 in0.0 mm
10:00 PM 74.6°F23.7°C 68.4°F20.2°C 81% 1.4 mph S2.3 kmh S 5.7 mph9.2 kmh 29.99 in1015.6 mb - 0.00 in0.0 mm 0.00 in0.0 mm
09:50 PM 74.9°F23.8°C 68.3°F20.2°C 80% 1.5 mph S2.4 kmh S 3.4 mph5.5 kmh 29.99 in1015.6 mb - 0.00 in0.0 mm 0.00 in0.0 mm
09:30 PM 75.3°F24.1°C 68.0°F20.0°C 78% 2.0 mph SW3.2 kmh SW 6.8 mph10.9 kmh 29.98 in1015.2 mb - 0.00 in0.0 mm 0.00 in0.0 mm
09:20 PM 75.6°F24.2°C 67.5°F19.7°C 76% 1.6 mph S2.6 kmh S 2.3 mph3.7 kmh 29.98 in1015.2 mb - 0.00 in0.0 mm 0.00 in0.0 mm
09:10 PM 75.8°F24.3°C 67.3°F19.6°C 75% 1.9 mph SSW3.1 kmh SSW 5.7 mph9.2 kmh 29.98 in1015.2 mb - 0.00 in0.0 mm 0.00 in0.0 mm
09:00 PM 75.9°F24.4°C 67.1°F19.5°C 74% 2.3 mph S3.7 kmh S 8.0 mph12.9 kmh 29.98 in1015.2 mb - 0.00 in0.0 mm 0.00 in0.0 mm
08:50 PM 76.2°F24.6°C 66.5°F19.2°C 72% 1.4 mph ESE2.3 kmh ESE 3.4 mph5.5 kmh 29.98 in1015.2 mb - 0.00 in0.0 mm 0.00 in0.0 mm
08:40 PM 76.5°F24.7°C 66.4°F19.1°C 71% 2.0 mph SSE3.2 kmh SSE 3.4 mph5.5 kmh 29.98 in1015.2 mb - 0.00 in0.0 mm 0.00 in0.0 mm
08:30 PM 76.7°F24.8°C 65.8°F18.8°C 69% 1.8 mph SE2.9 kmh SE 2.3 mph3.7 kmh 29.98 in1015.2 mb - 0.00 in0.0 mm 0.00 in0.0 mm
08:20 PM 77.0°F25.0°C 65.2°F18.4°C 67% 1.6 mph SSE2.6 kmh SSE 3.4 mph5.5 kmh 29.98 in1015.2 mb - 0.00 in0.0 mm 0.00 in0.0 mm
08:10 PM 77.3°F25.2°C 64.6°F18.1°C 65% 1.0 mph S1.6 kmh S 4.6 mph7.4 kmh 29.98 in1015.2 mb - 0.00 in0.0 mm 0.00 in0.0 mm
08:00 PM 77.7°F25.4°C 64.1°F17.8°C 63% 2.3 mph SSE3.7 kmh SSE 5.7 mph9.2 kmh 29.98 in1015.2 mb - 0.00 in0.0 mm 0.00 in0.0 mm
07:50 PM 78.2°F25.7°C 62.7°F17.1°C 59% 1.9 mph S3.1 kmh S 4.6 mph7.4 kmh 29.97 in1014.9 mb - 0.00 in0.0 mm 0.00 in0.0 mm
07:40 PM 78.6°F25.9°C 62.1°F16.7°C 57% 1.8 mph SSW2.9 kmh SSW 4.6 mph7.4 kmh 29.97 in1014.9 mb - 0.00 in0.0 mm 0.00 in0.0 mm
07:30 PM 79.1°F26.2°C 60.5°F15.8°C 53% 1.1 mph NW1.8 kmh NW 4.6 mph7.4 kmh 29.96 in1014.6 mb - 0.00 in0.0 mm 0.00 in0.0 mm
07:20 PM 79.6°F26.4°C 59.8°F15.4°C 51% 1.4 mph S2.3 kmh S 4.6 mph7.4 kmh 29.97 in1014.9 mb - 0.00 in0.0 mm 0.00 in0.0 mm
07:10 PM 79.9°F26.6°C 59.0°F15.0°C 49% 2.3 mph S3.7 kmh S 5.7 mph9.2 kmh 29.97 in1014.9 mb - 0.00 in0.0 mm 0.00 in0.0 mm
06:50 PM 81.2°F27.3°C 58.5°F14.7°C 46% 2.6 mph SSW4.2 kmh SSW 4.6 mph7.4 kmh 29.97 in1014.9 mb - 0.00 in0.0 mm 0.00 in0.0 mm
06:40 PM 82.3°F27.9°C 58.2°F14.6°C 44% 2.8 mph SSW4.5 kmh SSW 4.6 mph7.4 kmh 29.97 in1014.9 mb - 0.00 in0.0 mm 0.00 in0.0 mm
06:30 PM 83.0°F28.3°C 59.4°F15.2°C 45% 2.2 mph S3.5 kmh S 4.6 mph7.4 kmh 29.97 in1014.9 mb - 0.00 in0.0 mm 0.00 in0.0 mm
06:20 PM 82.9°F28.3°C 58.8°F14.9°C 44% 3.5 mph SSW5.6 kmh SSW 6.8 mph10.9 kmh 29.97 in1014.9 mb - 0.00 in0.0 mm 0.00 in0.0 mm
06:10 PM 82.7°F28.2°C 59.2°F15.1°C 45% 2.5 mph SSE4.0 kmh SSE 8.0 mph12.9 kmh 29.97 in1014.9 mb - 0.00 in0.0 mm 0.00 in0.0 mm
06:00 PM 83.7°F28.7°C 59.5°F15.3°C 44% 2.4 mph S3.9 kmh S 9.1 mph14.6 kmh 29.98 in1015.2 mb - 0.00 in0.0 mm 0.00 in0.0 mm
05:50 PM 84.8°F29.3°C 59.9°F15.5°C 43% 3.1 mph S5.0 kmh S 8.0 mph12.9 kmh 29.98 in1015.2 mb - 0.00 in0.0 mm 0.00 in0.0 mm
05:40 PM 85.3°F29.6°C 60.3°F15.7°C 43% 2.3 mph SE3.7 kmh SE 4.6 mph7.4 kmh 29.98 in1015.2 mb - 0.00 in0.0 mm 0.00 in0.0 mm
05:30 PM 85.4°F29.7°C 60.4°F15.8°C 43% 2.6 mph S4.2 kmh S 6.8 mph10.9 kmh 29.98 in1015.2 mb - 0.00 in0.0 mm 0.00 in0.0 mm
05:20 PM 85.6°F29.8°C 60.5°F15.8°C 43% 2.5 mph SE4.0 kmh SE 4.6 mph7.4 kmh 29.99 in1015.6 mb - 0.00 in0.0 mm 0.00 in0.0 mm
05:10 PM 86.9°F30.5°C 61.1°F16.2°C 42% 4.4 mph S7.1 kmh S 6.8 mph10.9 kmh 29.99 in1015.6 mb - 0.00 in0.0 mm 0.00 in0.0 mm
05:00 PM 88.1°F31.2°C 62.1°F16.7°C 42% 2.4 mph SE3.9 kmh SE 8.0 mph12.9 kmh 29.98 in1015.2 mb - 0.00 in0.0 mm 0.00 in0.0 mm
04:50 PM 88.7°F31.5°C 62.0°F16.7°C 41% 3.0 mph S4.8 kmh S 6.8 mph10.9 kmh 29.99 in1015.6 mb - 0.00 in0.0 mm 0.00 in0.0 mm
04:40 PM 88.8°F31.6°C 62.0°F16.7°C 41% 3.3 mph SE5.3 kmh SE 6.8 mph10.9 kmh 29.99 in1015.6 mb - 0.00 in0.0 mm 0.00 in0.0 mm
04:30 PM 89.5°F31.9°C 61.2°F16.2°C 39% 2.8 mph SSE4.5 kmh SSE 6.8 mph10.9 kmh 29.99 in1015.6 mb - 0.00 in0.0 mm 0.00 in0.0 mm
04:20 PM 90.4°F32.4°C 61.4°F16.3°C 38% 3.3 mph SSE5.3 kmh SSE 10.3 mph16.6 kmh 30.00 in1015.9 mb - 0.00 in0.0 mm 0.00 in0.0 mm
04:10 PM 90.3°F32.4°C 59.7°F15.4°C 36% 2.0 mph S3.2 kmh S 3.4 mph5.5 kmh 29.99 in1015.6 mb - 0.00 in0.0 mm 0.00 in0.0 mm
04:00 PM 89.8°F32.1°C 58.5°F14.7°C 35% 2.8 mph SW4.5 kmh SW 9.1 mph14.6 kmh 29.99 in1015.6 mb - 0.00 in0.0 mm 0.00 in0.0 mm
03:50 PM 90.0°F32.2°C 59.4°F15.2°C 36% 2.5 mph S4.0 kmh S 4.6 mph7.4 kmh 30.00 in1015.9 mb - 0.00 in0.0 mm 0.00 in0.0 mm
03:40 PM 89.9°F32.2°C 59.4°F15.2°C 36% 3.5 mph SSW5.6 kmh SSW 8.0 mph12.9 kmh 30.00 in1015.9 mb - 0.00 in0.0 mm 0.00 in0.0 mm
03:30 PM 90.5°F32.5°C 59.1°F15.1°C 35% 2.0 mph S3.2 kmh S 5.7 mph9.2 kmh 30.00 in1015.9 mb - 0.00 in0.0 mm 0.00 in0.0 mm
03:20 PM 90.2°F32.3°C 58.9°F14.9°C 35% 2.3 mph S3.7 kmh S 4.6 mph7.4 kmh 30.01 in1016.3 mb - 0.00 in0.0 mm 0.00 in0.0 mm
03:10 PM 89.8°F32.1°C 58.5°F14.7°C 35% 2.8 mph S4.5 kmh S 5.7 mph9.2 kmh 30.00 in1015.9 mb - 0.00 in0.0 mm 0.00 in0.0 mm
03:00 PM 89.5°F31.9°C 59.1°F15.1°C 36% 2.7 mph SSW4.3 kmh SSW 6.8 mph10.9 kmh 30.00 in1015.9 mb - 0.00 in0.0 mm 0.00 in0.0 mm
02:50 PM 89.3°F31.8°C 59.6°F15.3°C 37% 3.5 mph SSW5.6 kmh SSW 6.8 mph10.9 kmh 30.00 in1015.9 mb - 0.00 in0.0 mm 0.00 in0.0 mm
02:40 PM 89.3°F31.8°C 58.8°F14.9°C 36% 3.2 mph S5.1 kmh S 8.0 mph12.9 kmh 30.01 in1016.3 mb - 0.00 in0.0 mm 0.00 in0.0 mm
02:30 PM 89.4°F31.9°C 59.7°F15.4°C 37% 1.7 mph SW2.7 kmh SW 9.1 mph14.6 kmh 30.01 in1016.3 mb - 0.00 in0.0 mm 0.00 in0.0 mm
02:20 PM 88.8°F31.6°C 60.6°F15.9°C 39% 3.7 mph SSW6.0 kmh SSW 10.3 mph16.6 kmh 30.01 in1016.3 mb - 0.00 in0.0 mm 0.00 in0.0 mm
02:10 PM 89.8°F32.1°C 60.8°F16.0°C 38% 3.1 mph S5.0 kmh S 10.3 mph16.6 kmh 30.01 in1016.3 mb - 0.00 in0.0 mm 0.00 in0.0 mm
02:00 PM 89.0°F31.7°C 60.1°F15.6°C 38% 2.9 mph SW4.7 kmh SW 8.0 mph12.9 kmh 30.02 in1016.6 mb - 0.00 in0.0 mm 0.00 in0.0 mm
01:50 PM 89.3°F31.8°C 60.3°F15.7°C 38% 2.5 mph S4.0 kmh S 9.1 mph14.6 kmh 30.02 in1016.6 mb - 0.00 in0.0 mm 0.00 in0.0 mm
01:40 PM 89.3°F31.8°C 59.6°F15.3°C 37% 2.8 mph SSE4.5 kmh SSE 12.5 mph20.1 kmh 30.02 in1016.6 mb - 0.00 in0.0 mm 0.00 in0.0 mm
01:30 PM 89.0°F31.7°C 60.8°F16.0°C 39% 2.4 mph SW3.9 kmh SW 6.8 mph10.9 kmh 30.02 in1016.6 mb - 0.00 in0.0 mm 0.00 in0.0 mm
01:20 PM 88.1°F31.2°C 60.8°F16.0°C 40% 3.9 mph WSW6.3 kmh WSW 13.7 mph22.0 kmh 30.02 in1016.6 mb - 0.00 in0.0 mm 0.00 in0.0 mm
01:10 PM 88.2°F31.2°C 60.1°F15.6°C 39% 3.6 mph SW5.8 kmh SW 6.8 mph10.9 kmh 30.02 in1016.6 mb - 0.00 in0.0 mm 0.00 in0.0 mm
01:00 PM 88.3°F31.3°C 60.2°F15.7°C 39% 2.5 mph WSW4.0 kmh WSW 8.0 mph12.9 kmh 30.03 in1016.9 mb - 0.00 in0.0 mm 0.00 in0.0 mm
12:50 PM 88.0°F31.1°C 61.4°F16.3°C 41% 3.5 mph S5.6 kmh S 8.0 mph12.9 kmh 30.03 in1016.9 mb - 0.00 in0.0 mm 0.00 in0.0 mm
12:40 PM 88.3°F31.3°C 60.9°F16.1°C 40% 3.9 mph WNW6.3 kmh WNW 10.3 mph16.6 kmh 30.04 in1017.3 mb - 0.00 in0.0 mm 0.00 in0.0 mm
12:30 PM 87.7°F30.9°C 60.4°F15.8°C 40% 4.0 mph SW6.4 kmh SW 10.3 mph16.6 kmh 30.05 in1017.6 mb - 0.00 in0.0 mm 0.00 in0.0 mm
12:20 PM 87.2°F30.7°C 61.3°F16.3°C 42% 4.0 mph S6.4 kmh S 5.7 mph9.2 kmh 30.05 in1017.6 mb - 0.00 in0.0 mm 0.00 in0.0 mm
12:10 PM 86.9°F30.5°C 61.0°F16.1°C 42% 4.1 mph SSW6.6 kmh SSW 10.3 mph16.6 kmh 30.05 in1017.6 mb - 0.00 in0.0 mm 0.00 in0.0 mm
12:00 PM 86.7°F30.4°C 61.6°F16.4°C 43% 2.9 mph S4.7 kmh S 11.4 mph18.3 kmh 30.05 in1017.6 mb - 0.00 in0.0 mm 0.00 in0.0 mm
11:50 AM 87.4°F30.8°C 62.2°F16.8°C 43% 2.1 mph SSW3.4 kmh SSW 8.0 mph12.9 kmh 30.05 in1017.6 mb - 0.00 in0.0 mm 0.00 in0.0 mm
11:40 AM 87.0°F30.6°C 62.5°F16.9°C 44% 3.0 mph SSE4.8 kmh SSE 8.0 mph12.9 kmh 30.05 in1017.6 mb - 0.00 in0.0 mm 0.00 in0.0 mm
11:30 AM 85.9°F29.9°C 62.1°F16.7°C 45% 2.8 mph SW4.5 kmh SW 6.8 mph10.9 kmh 30.05 in1017.6 mb - 0.00 in0.0 mm 0.00 in0.0 mm
11:20 AM 85.4°F29.7°C 61.0°F16.1°C 44% 3.6 mph WNW5.8 kmh WNW 10.3 mph16.6 kmh 30.05 in1017.6 mb - 0.00 in0.0 mm 0.00 in0.0 mm
11:10 AM 85.7°F29.8°C 60.7°F15.9°C 43% 3.2 mph SSW5.1 kmh SSW 9.1 mph14.6 kmh 30.05 in1017.6 mb - 0.00 in0.0 mm 0.00 in0.0 mm
11:00 AM 85.3°F29.6°C 60.3°F15.7°C 43% 3.1 mph SSE5.0 kmh SSE 8.0 mph12.9 kmh 30.05 in1017.6 mb - 0.00 in0.0 mm 0.00 in0.0 mm
10:50 AM 84.9°F29.4°C 61.2°F16.2°C 45% 2.7 mph SW4.3 kmh SW 6.8 mph10.9 kmh 30.05 in1017.6 mb - 0.00 in0.0 mm 0.00 in0.0 mm
10:40 AM 84.8°F29.3°C 61.1°F16.2°C 45% 2.7 mph SSE4.3 kmh SSE 6.8 mph10.9 kmh 30.05 in1017.6 mb - 0.00 in0.0 mm 0.00 in0.0 mm
10:30 AM 84.8°F29.3°C 61.7°F16.5°C 46% 2.4 mph S3.9 kmh S 8.0 mph12.9 kmh 30.05 in1017.6 mb - 0.00 in0.0 mm 0.00 in0.0 mm
10:20 AM 84.2°F29.0°C 61.8°F16.6°C 47% 2.5 mph SW4.0 kmh SW 5.7 mph9.2 kmh 30.05 in1017.6 mb - 0.00 in0.0 mm 0.00 in0.0 mm
10:10 AM 83.8°F28.8°C 61.4°F16.3°C 47% 2.0 mph S3.2 kmh S 6.8 mph10.9 kmh 30.04 in1017.3 mb - 0.00 in0.0 mm 0.00 in0.0 mm
10:00 AM 83.3°F28.5°C 62.1°F16.7°C 49% 2.7 mph SSE4.3 kmh SSE 4.6 mph7.4 kmh 30.04 in1017.3 mb - 0.00 in0.0 mm 0.00 in0.0 mm
09:50 AM 83.1°F28.4°C 63.1°F17.3°C 51% 2.4 mph SW3.9 kmh SW 9.1 mph14.6 kmh 30.04 in1017.3 mb - 0.00 in0.0 mm 0.00 in0.0 mm
09:40 AM 82.2°F27.9°C 63.4°F17.4°C 53% 2.0 mph S3.2 kmh S 2.3 mph3.7 kmh 30.04 in1017.3 mb - 0.00 in0.0 mm 0.00 in0.0 mm
09:30 AM 81.8°F27.7°C 64.6°F18.1°C 56% 2.1 mph SSE3.4 kmh SSE 6.8 mph10.9 kmh 30.04 in1017.3 mb - 0.00 in0.0 mm 0.00 in0.0 mm
09:20 AM 80.8°F27.1°C 65.1°F18.4°C 59% 2.5 mph SW4.0 kmh SW 4.6 mph7.4 kmh 30.04 in1017.3 mb - 0.00 in0.0 mm 0.00 in0.0 mm
09:10 AM 79.8°F26.6°C 66.1°F18.9°C 63% 1.9 mph WSW3.1 kmh WSW 4.6 mph7.4 kmh 30.03 in1016.9 mb - 0.00 in0.0 mm 0.00 in0.0 mm
09:00 AM 78.7°F25.9°C 66.8°F19.3°C 67% 1.6 mph S2.6 kmh S 5.7 mph9.2 kmh 30.03 in1016.9 mb - 0.00 in0.0 mm 0.00 in0.0 mm
08:50 AM 77.1°F25.1°C 67.0°F19.4°C 71% 1.6 mph SSE2.6 kmh SSE 5.7 mph9.2 kmh 30.02 in1016.6 mb - 0.00 in0.0 mm 0.00 in0.0 mm
08:40 AM 75.7°F24.3°C 67.6°F19.8°C 76% 2.8 mph SE4.5 kmh SE 6.8 mph10.9 kmh 30.02 in1016.6 mb - 0.00 in0.0 mm 0.00 in0.0 mm
08:30 AM 74.7°F23.7°C 68.8°F20.4°C 82% 1.7 mph S2.7 kmh S 2.3 mph3.7 kmh 30.02 in1016.6 mb - 0.00 in0.0 mm 0.00 in0.0 mm
08:20 AM 72.9°F22.7°C 69.4°F20.8°C 89% 1.2 mph NW1.9 kmh NW 2.3 mph3.7 kmh 30.02 in1016.6 mb - 0.00 in0.0 mm 0.00 in0.0 mm
08:10 AM 71.5°F21.9°C 69.1°F20.6°C 92% 2.0 mph S3.2 kmh S 3.4 mph5.5 kmh 30.02 in1016.6 mb - 0.00 in0.0 mm 0.00 in0.0 mm
08:00 AM 70.7°F21.5°C 70.4°F21.3°C 99% 1.1 mph S1.8 kmh S 2.3 mph3.7 kmh 30.01 in1016.3 mb - 0.00 in0.0 mm 0.00 in0.0 mm
07:50 AM 69.8°F21.0°C 69.5°F20.8°C 99% 1.5 mph WSW2.4 kmh WSW 2.3 mph3.7 kmh 30.01 in1016.3 mb - 0.00 in0.0 mm 0.00 in0.0 mm
07:40 AM 69.2°F20.7°C 68.9°F20.5°C 99% 1.7 mph SSE2.7 kmh SSE 3.4 mph5.5 kmh 30.01 in1016.3 mb - 0.00 in0.0 mm 0.00 in0.0 mm
07:30 AM 68.9°F20.5°C 68.6°F20.3°C 99% 0.4 mph S0.6 kmh S 2.3 mph3.7 kmh 30.01 in1016.3 mb - 0.00 in0.0 mm 0.00 in0.0 mm
07:20 AM 68.5°F20.3°C 68.2°F20.1°C 99% 0.7 mph SSE1.1 kmh SSE 2.3 mph3.7 kmh 30.01 in1016.3 mb - 0.00 in0.0 mm 0.00 in0.0 mm
07:10 AM 67.8°F19.9°C 67.5°F19.7°C 99% Calm Calm -- 30.01 in1016.3 mb - 0.00 in0.0 mm 0.00 in0.0 mm
07:00 AM 67.1°F19.5°C 66.8°F19.3°C 99% Calm Calm -- 30.00 in1015.9 mb - 0.00 in0.0 mm 0.00 in0.0 mm
06:50 AM 67.0°F19.4°C 66.7°F19.3°C 99% 0.3 mph ENE0.5 kmh ENE -- 30.01 in1016.3 mb - 0.00 in0.0 mm 0.00 in0.0 mm
06:40 AM 66.9°F19.4°C 66.6°F19.2°C 99% 0.1 mph ESE0.2 kmh ESE -- 30.00 in1015.9 mb - 0.00 in0.0 mm 0.00 in0.0 mm
06:30 AM 66.6°F19.2°C 66.3°F19.1°C 99% Calm Calm -- 30.00 in1015.9 mb - 0.00 in0.0 mm 0.00 in0.0 mm
06:20 AM 66.5°F19.2°C 66.2°F19.0°C 99% 0.9 mph SE1.4 kmh SE 2.3 mph3.7 kmh 30.00 in1015.9 mb - 0.00 in0.0 mm 0.00 in0.0 mm
06:10 AM 65.7°F18.7°C 65.1°F18.4°C 98% Calm Calm -- 30.00 in1015.9 mb - 0.00 in0.0 mm 0.00 in0.0 mm
06:00 AM 65.9°F18.8°C 65.3°F18.5°C 98% 1.1 mph ENE1.8 kmh ENE 2.3 mph3.7 kmh 30.00 in1015.9 mb - 0.00 in0.0 mm 0.00 in0.0 mm
05:50 AM 65.6°F18.7°C 65.0°F18.3°C 98% 0.1 mph ENE0.2 kmh ENE -- 30.00 in1015.9 mb - 0.00 in0.0 mm 0.00 in0.0 mm
05:40 AM 65.2°F18.4°C 64.6°F18.1°C 98% 0.1 mph E0.2 kmh E 2.3 mph3.7 kmh 29.99 in1015.6 mb - 0.00 in0.0 mm 0.00 in0.0 mm
05:30 AM 64.5°F18.1°C 63.9°F17.7°C 98% 0.3 mph SE0.5 kmh SE 1.1 mph1.8 kmh 29.99 in1015.6 mb - 0.00 in0.0 mm 0.00 in0.0 mm
05:20 AM 63.9°F17.7°C 63.3°F17.4°C 98% Calm Calm 1.1 mph1.8 kmh 30.00 in1015.9 mb - 0.00 in0.0 mm 0.00 in0.0 mm
05:10 AM 64.2°F17.9°C 63.6°F17.6°C 98% Calm Calm -- 29.99 in1015.6 mb - 0.00 in0.0 mm 0.00 in0.0 mm
05:00 AM 64.3°F17.9°C 63.7°F17.6°C 98% Calm Calm -- 29.98 in1015.2 mb - 0.00 in0.0 mm 0.00 in0.0 mm
04:50 AM 64.1°F17.8°C 63.5°F17.5°C 98% Calm Calm -- 29.98 in1015.2 mb - 0.00 in0.0 mm 0.00 in0.0 mm
04:40 AM 63.8°F17.7°C 63.3°F17.4°C 98% Calm Calm -- 29.98 in1015.2 mb - 0.00 in0.0 mm 0.00 in0.0 mm
04:30 AM 63.5°F17.5°C 62.9°F17.2°C 98% Calm Calm -- 29.99 in1015.6 mb - 0.00 in0.0 mm 0.00 in0.0 mm
04:20 AM 63.6°F17.6°C 63.0°F17.2°C 98% Calm Calm -- 29.99 in1015.6 mb - 0.00 in0.0 mm 0.00 in0.0 mm
04:10 AM 63.5°F17.5°C 62.9°F17.2°C 98% Calm Calm -- 29.99 in1015.6 mb - 0.00 in0.0 mm 0.00 in0.0 mm
04:00 AM 63.5°F17.5°C 63.0°F17.2°C 98% Calm Calm -- 29.99 in1015.6 mb - 0.00 in0.0 mm 0.00 in0.0 mm
03:50 AM 63.7°F17.6°C 63.2°F17.3°C 98% Calm Calm -- 30.00 in1015.9 mb - 0.00 in0.0 mm 0.00 in0.0 mm
03:40 AM 64.2°F17.9°C 63.6°F17.6°C 98% Calm Calm -- 30.00 in1015.9 mb - 0.00 in0.0 mm 0.00 in0.0 mm
03:30 AM 64.4°F18.0°C 63.8°F17.7°C 98% Calm Calm -- 30.00 in1015.9 mb - 0.00 in0.0 mm 0.00 in0.0 mm
03:20 AM 64.6°F18.1°C 64.0°F17.8°C 98% Calm Calm -- 29.99 in1015.6 mb - 0.00 in0.0 mm 0.00 in0.0 mm
03:10 AM 64.8°F18.2°C 64.3°F17.9°C 98% Calm Calm -- 30.00 in1015.9 mb - 0.00 in0.0 mm 0.00 in0.0 mm
03:00 AM 64.8°F18.2°C 64.2°F17.9°C 98% 0.2 mph S0.3 kmh S 1.1 mph1.8 kmh 30.00 in1015.9 mb - 0.00 in0.0 mm 0.00 in0.0 mm
02:50 AM 65.0°F18.3°C 64.4°F18.0°C 98% Calm Calm -- 30.00 in1015.9 mb - 0.00 in0.0 mm 0.00 in0.0 mm
02:40 AM 65.3°F18.5°C 64.7°F18.2°C 98% Calm Calm -- 30.00 in1015.9 mb - 0.00 in0.0 mm 0.00 in0.0 mm
02:30 AM 65.7°F18.7°C 65.1°F18.4°C 98% Calm Calm -- 30.00 in1015.9 mb - 0.00 in0.0 mm 0.00 in0.0 mm
02:20 AM 66.1°F18.9°C 65.8°F18.8°C 99% Calm Calm -- 30.01 in1016.3 mb - 0.00 in0.0 mm 0.00 in0.0 mm
02:10 AM 66.5°F19.2°C 66.2°F19.0°C 99% Calm Calm -- 30.01 in1016.3 mb - 0.00 in0.0 mm 0.00 in0.0 mm
02:00 AM 66.9°F19.4°C 66.6°F19.2°C 99% Calm Calm -- 30.02 in1016.6 mb - 0.00 in0.0 mm 0.00 in0.0 mm
01:50 AM 67.3°F19.6°C 66.8°F19.3°C 98% Calm Calm -- 30.02 in1016.6 mb - 0.00 in0.0 mm 0.00 in0.0 mm
01:40 AM 67.8°F19.9°C 67.2°F19.6°C 98% Calm Calm 1.1 mph1.8 kmh 30.02 in1016.6 mb - 0.00 in0.0 mm 0.00 in0.0 mm
01:30 AM 68.2°F20.1°C 67.6°F19.8°C 98% 0.4 mph S0.6 kmh S 2.3 mph3.7 kmh 30.03 in1016.9 mb - 0.00 in0.0 mm 0.00 in0.0 mm
01:20 AM 68.6°F20.3°C 67.4°F19.7°C 96% 0.1 mph S0.2 kmh S 1.1 mph1.8 kmh 30.03 in1016.9 mb - 0.00 in0.0 mm 0.00 in0.0 mm
01:10 AM 68.9°F20.5°C 67.4°F19.7°C 95% 0.6 mph WSW1.0 kmh WSW 2.3 mph3.7 kmh 30.03 in1016.9 mb - 0.00 in0.0 mm 0.00 in0.0 mm
01:00 AM 69.2°F20.7°C 67.4°F19.7°C 94% 0.2 mph SW0.3 kmh SW 1.1 mph1.8 kmh 30.02 in1016.6 mb - 0.00 in0.0 mm 0.00 in0.0 mm
12:50 AM 69.3°F20.7°C 67.5°F19.7°C 94% 0.9 mph SSE1.4 kmh SSE 2.3 mph3.7 kmh 30.03 in1016.9 mb - 0.00 in0.0 mm 0.00 in0.0 mm
12:40 AM 69.3°F20.7°C 67.5°F19.7°C 94% 1.1 mph ESE1.8 kmh ESE 3.4 mph5.5 kmh 30.03 in1016.9 mb - 0.00 in0.0 mm 0.00 in0.0 mm
12:30 AM 69.5°F20.8°C 67.4°F19.7°C 93% 0.5 mph S0.8 kmh S 2.3 mph3.7 kmh 30.03 in1016.9 mb - 0.00 in0.0 mm 0.00 in0.0 mm
12:20 AM 69.6°F20.9°C 67.2°F19.6°C 92% 0.8 mph S1.3 kmh S 2.3 mph3.7 kmh 30.02 in1016.6 mb - 0.00 in0.0 mm 0.00 in0.0 mm
12:10 AM 69.7°F20.9°C 67.3°F19.6°C 92% 1.1 mph S1.8 kmh S 3.4 mph5.5 kmh 30.03 in1016.9 mb - 0.00 in0.0 mm 0.00 in0.0 mm
12:00 AM 69.8°F21.0°C 66.8°F19.3°C 90% 0.6 mph SSW1.0 kmh SSW 2.3 mph3.7 kmh 30.03 in1016.9 mb - 0.00 in0.0 mm 0.00 in0.0 mm